Time;durP1;ratioP1;P1;durP2;ratioP2;P2;SDS_P1;SDS_P2;PMS_P1;PMS_P2;Temp;Humidity;BMP_temperature;BMP_pressure;BME280_temperature;BME280_humidity;BME280_pressure;Samples;Min_cycle;Max_cycle;Signal;HPM_P1;HPM_P2
2020/12/16 00:00:50;;;;;;;12.73;9.45;;;7.60;99.90;;;;;;5094633;28;20495;-64
2020/12/16 00:03:15;;;;;;;12.43;8.75;;;7.70;99.90;;;;;;5095207;28;20178;-64
2020/12/16 00:05:41;;;;;;;12.98;9.82;;;7.70;99.90;;;;;;5094615;28;20591;-64
2020/12/16 00:08:07;;;;;;;14.25;9.40;;;7.70;99.90;;;;;;5094631;28;20191;-64
2020/12/16 00:10:32;;;;;;;13.35;9.50;;;7.70;99.90;;;;;;5094496;28;20221;-64
2020/12/16 00:12:58;;;;;;;12.93;9.60;;;7.70;99.90;;;;;;5094604;28;20608;-64
2020/12/16 00:15:25;;;;;;;13.70;10.35;;;7.80;99.90;;;;;;5094441;28;20183;-64
2020/12/16 00:17:51;;;;;;;14.73;10.43;;;7.80;99.90;;;;;;5094808;28;20599;-65
2020/12/16 00:20:17;;;;;;;13.40;9.75;;;7.80;99.90;;;;;;5094435;28;20218;-64
2020/12/16 00:22:42;;;;;;;15.60;10.68;;;7.90;99.90;;;;;;5094456;28;20228;-65
2020/12/16 00:25:09;;;;;;;13.48;10.25;;;7.80;99.90;;;;;;5094383;28;20232;-64
2020/12/16 00:27:35;;;;;;;13.45;10.10;;;7.80;99.90;;;;;;5094346;28;20628;-64
2020/12/16 00:30:00;;;;;;;15.07;10.75;;;7.90;99.90;;;;;;5093304;28;20167;-64
2020/12/16 00:32:27;;;;;;;14.68;9.98;;;7.90;99.90;;;;;;5094713;28;20611;-64
2020/12/16 00:34:53;;;;;;;15.35;10.50;;;7.80;99.90;;;;;;5094235;28;20596;-65
2020/12/16 00:37:18;;;;;;;14.65;10.93;;;7.80;99.90;;;;;;5094660;28;20588;-65
2020/12/16 00:39:44;;;;;;;15.23;10.48;;;7.90;99.90;;;;;;5094233;28;20175;-64
2020/12/16 00:42:09;;;;;;;14.60;10.60;;;7.90;99.90;;;;;;5096314;28;20163;-65
2020/12/16 00:44:35;;;;;;;15.48;11.57;;;7.90;99.90;;;;;;5098174;28;20186;-64
2020/12/16 00:47:01;;;;;;;14.25;10.35;;;7.90;99.90;;;;;;5097867;28;20269;-64
2020/12/16 00:49:26;;;;;;;17.45;11.18;;;7.80;99.90;;;;;;5097825;28;20163;-65
2020/12/16 00:51:52;;;;;;;17.33;11.23;;;7.80;99.90;;;;;;5098076;28;20168;-64
2020/12/16 00:54:18;;;;;;;15.25;10.82;;;7.80;99.90;;;;;;5097851;28;20175;-64
2020/12/16 00:56:44;;;;;;;18.77;11.85;;;7.70;99.90;;;;;;5098005;28;20199;-64
2020/12/16 00:59:10;;;;;;;16.83;11.70;;;7.70;99.90;;;;;;5098041;28;20170;-64
2020/12/16 01:01:35;;;;;;;17.20;11.30;;;7.60;99.90;;;;;;5097648;28;20159;-64
2020/12/16 01:04:01;;;;;;;19.13;11.63;;;7.60;99.90;;;;;;5097941;28;20179;-64
2020/12/16 01:06:26;;;;;;;17.48;11.60;;;7.60;99.90;;;;;;5097617;28;20168;-64
2020/12/16 01:08:52;;;;;;;19.77;12.13;;;7.60;99.90;;;;;;5097571;28;20198;-64
2020/12/16 01:11:17;;;;;;;22.83;12.10;;;7.60;99.90;;;;;;5097503;28;20534;-64
2020/12/16 01:13:43;;;;;;;19.83;11.88;;;7.60;99.90;;;;;;5097776;28;20262;-64
2020/12/16 01:16:08;;;;;;;20.10;12.40;;;7.60;99.90;;;;;;5097386;28;20164;-65
2020/12/16 01:18:34;;;;;;;18.83;11.93;;;7.70;99.90;;;;;;5097633;28;20229;-64
2020/12/16 01:20:59;;;;;;;20.17;12.73;;;7.70;99.90;;;;;;5097502;28;20228;-65
2020/12/16 01:23:25;;;;;;;19.45;12.23;;;7.70;99.90;;;;;;5097592;28;20254;-65
2020/12/16 01:25:50;;;;;;;19.45;13.20;;;7.70;99.90;;;;;;5097479;28;20195;-64
2020/12/16 01:28:16;;;;;;;20.80;12.05;;;7.70;99.90;;;;;;5096618;28;20191;-64
2020/12/16 01:30:41;;;;;;;20.60;11.90;;;7.70;99.90;;;;;;5097421;28;20160;-64
2020/12/16 01:33:07;;;;;;;20.88;12.07;;;7.70;99.90;;;;;;5097410;28;20232;-64
2020/12/16 01:35:32;;;;;;;20.27;12.32;;;7.60;99.90;;;;;;5097003;28;20165;-64
2020/12/16 01:37:58;;;;;;;19.80;12.35;;;7.70;99.90;;;;;;5097332;28;20502;-65
2020/12/16 01:40:24;;;;;;;19.98;11.70;;;7.60;99.90;;;;;;5097202;28;20607;-64
2020/12/16 01:42:49;;;;;;;18.63;11.93;;;7.60;99.90;;;;;;5097199;28;20168;-64
2020/12/16 01:45:19;;;;;;;20.25;12.63;;;7.60;99.90;;;;;;5096730;28;20195;-64
2020/12/16 01:47:44;;;;;;;18.98;12.10;;;7.60;99.90;;;;;;5097028;28;20192;-65
2020/12/16 01:50:11;;;;;;;21.13;12.13;;;7.60;99.90;;;;;;5096730;28;20606;-64
2020/12/16 01:52:38;;;;;;;22.02;12.82;;;7.60;99.90;;;;;;5096165;28;20156;-65
2020/12/16 01:55:06;;;;;;;21.58;13.30;;;7.70;99.90;;;;;;5096314;28;20175;-65
2020/12/16 01:57:39;;;;;;;22.08;13.23;;;7.70;99.90;;;;;;5097185;28;20171;-65
2020/12/16 02:00:12;;;;;;;21.92;13.88;;;7.70;99.90;;;;;;5096498;28;20626;-65
2020/12/16 02:02:42;;;;;;;22.98;13.13;;;7.70;99.90;;;;;;5096517;28;20182;-64
2020/12/16 02:05:10;;;;;;;23.60;13.85;;;7.60;99.90;;;;;;5096623;28;20242;-64
2020/12/16 02:07:35;;;;;;;23.25;14.13;;;7.60;99.90;;;;;;5095760;28;20699;-65
2020/12/16 02:10:01;;;;;;;28.52;15.63;;;7.70;99.90;;;;;;5095502;28;20203;-64
2020/12/16 02:12:33;;;;;;;26.95;15.60;;;7.60;99.90;;;;;;5096253;28;20200;-64
2020/12/16 02:14:59;;;;;;;25.42;15.57;;;7.60;99.90;;;;;;5096607;28;20172;-64
2020/12/16 02:17:25;;;;;;;27.30;15.80;;;7.60;99.90;;;;;;5096151;28;20249;-64
2020/12/16 02:19:58;;;;;;;32.30;16.20;;;7.60;99.90;;;;;;5096483;28;20659;-64
2020/12/16 02:22:24;;;;;;;28.65;16.10;;;7.60;99.90;;;;;;5096124;28;20156;-64
2020/12/16 02:25:10;;;;;;;29.25;16.00;;;7.60;99.90;;;;;;5096361;28;20185;-64
2020/12/16 02:27:37;;;;;;;29.25;17.08;;;7.60;99.90;;;;;;5096177;28;20187;-64
2020/12/16 02:30:05;;;;;;;28.10;15.43;;;7.60;99.90;;;;;;5095992;28;20164;-64
2020/12/16 02:32:30;;;;;;;28.88;16.25;;;7.60;99.90;;;;;;5095906;28;20186;-64
2020/12/16 02:34:56;;;;;;;30.05;16.40;;;7.60;99.90;;;;;;5097163;28;20607;-65
2020/12/16 02:37:22;;;;;;;29.33;16.63;;;7.60;99.90;;;;;;5096755;28;20168;-65
2020/12/16 02:39:48;;;;;;;27.88;16.05;;;7.70;99.90;;;;;;5097059;28;20175;-65
2020/12/16 02:42:15;;;;;;;32.63;17.70;;;7.70;99.90;;;;;;5096954;28;20250;-65
2020/12/16 02:44:41;;;;;;;30.02;17.02;;;7.70;99.90;;;;;;5098173;28;20614;-65
2020/12/16 02:47:06;;;;;;;30.85;17.15;;;7.70;99.90;;;;;;5098878;28;20175;-65
2020/12/16 02:49:32;;;;;;;31.38;17.17;;;7.70;99.90;;;;;;5100547;28;20221;-65
2020/12/16 02:51:59;;;;;;;31.63;17.58;;;7.70;99.90;;;;;;5096303;28;20246;-65
2020/12/16 02:54:25;;;;;;;32.03;17.75;;;7.70;99.90;;;;;;5095580;28;20658;-64
2020/12/16 02:56:52;;;;;;;32.67;17.85;;;7.80;99.90;;;;;;5095453;28;20297;-64
2020/12/16 02:59:22;;;;;;;31.90;17.77;;;7.70;99.90;;;;;;5095744;28;20171;-64
2020/12/16 03:01:49;;;;;;;34.28;17.90;;;7.70;99.90;;;;;;5095635;28;20720;-65
2020/12/16 03:04:15;;;;;;;31.58;17.58;;;7.80;99.90;;;;;;5093976;28;20163;-64
2020/12/16 03:06:40;;;;;;;32.90;17.60;;;7.70;99.90;;;;;;5095671;28;20182;-64
2020/12/16 03:09:06;;;;;;;32.88;17.98;;;7.70;99.90;;;;;;5095242;28;20195;-64
2020/12/16 03:11:31;;;;;;;32.80;17.73;;;7.70;99.90;;;;;;5095236;28;20246;-64
2020/12/16 03:13:57;;;;;;;31.30;17.15;;;7.70;99.90;;;;;;5095242;28;20167;-64
2020/12/16 03:16:22;;;;;;;31.67;17.17;;;7.80;99.90;;;;;;5095148;28;20197;-64
2020/12/16 03:18:48;;;;;;;28.00;15.63;;;7.80;99.90;;;;;;5095254;28;20176;-64
2020/12/16 03:21:21;;;;;;;30.08;15.55;;;7.70;99.90;;;;;;5095296;28;20210;-65
2020/12/16 03:23:46;;;;;;;28.52;15.93;;;7.80;99.90;;;;;;5095175;28;20148;-64
2020/12/16 03:26:12;;;;;;;31.50;16.67;;;7.80;99.90;;;;;;5094996;28;20626;-64
2020/12/16 03:28:37;;;;;;;33.33;17.10;;;7.80;99.90;;;;;;5095208;28;20195;-65
2020/12/16 03:31:04;;;;;;;29.25;15.95;;;7.80;99.90;;;;;;5095053;28;20164;-64
2020/12/16 03:33:30;;;;;;;27.63;15.90;;;7.80;99.90;;;;;;5094040;28;20498;-64
2020/12/16 03:35:55;;;;;;;30.27;15.73;;;7.70;99.90;;;;;;5094994;28;20168;-64
2020/12/16 03:38:21;;;;;;;30.75;15.40;;;7.80;99.90;;;;;;5095137;28;20175;-64
2020/12/16 03:40:46;;;;;;;28.73;16.05;;;7.80;99.90;;;;;;5095334;28;20172;-64
2020/12/16 03:43:12;;;;;;;27.20;14.63;;;7.80;99.90;;;;;;5094826;28;20220;-64
2020/12/16 03:45:37;;;;;;;27.60;15.05;;;7.80;99.90;;;;;;5094877;28;20251;-64
2020/12/16 03:48:03;;;;;;;28.38;14.45;;;7.80;99.90;;;;;;5094656;28;20187;-64
2020/12/16 03:50:28;;;;;;;26.88;14.57;;;7.70;99.90;;;;;;5095081;28;20164;-64
2020/12/16 03:52:53;;;;;;;29.23;15.35;;;7.80;99.90;;;;;;5094696;28;20167;-65
2020/12/16 03:55:19;;;;;;;26.92;13.63;;;7.80;99.90;;;;;;5094792;28;20174;-64
2020/12/16 03:57:44;;;;;;;31.50;14.95;;;7.80;99.90;;;;;;5094650;28;20167;-65
2020/12/16 04:00:10;;;;;;;30.90;15.77;;;7.80;99.90;;;;;;5095242;28;20181;-64
2020/12/16 04:02:37;;;;;;;28.63;14.70;;;7.80;99.90;;;;;;5094799;28;20620;-64
2020/12/16 04:05:05;;;;;;;26.83;14.68;;;7.80;99.90;;;;;;5094614;28;20591;-65
2020/12/16 04:07:30;;;;;;;30.00;15.43;;;7.90;99.90;;;;;;5094522;28;20248;-64
2020/12/16 04:09:57;;;;;;;28.17;14.80;;;7.90;99.90;;;;;;5094874;28;20595;-64
2020/12/16 04:12:22;;;;;;;26.60;14.52;;;7.90;99.90;;;;;;5094552;28;20243;-64
2020/12/16 04:14:48;;;;;;;30.05;15.40;;;7.90;99.90;;;;;;5095063;28;20247;-64
2020/12/16 04:17:13;;;;;;;28.02;14.80;;;8.00;99.90;;;;;;5096822;28;20168;-64
2020/12/16 04:19:39;;;;;;;26.08;14.40;;;8.00;99.90;;;;;;5098967;28;20178;-64
2020/12/16 04:22:04;;;;;;;27.17;15.13;;;8.00;99.90;;;;;;5098262;28;20160;-64
2020/12/16 04:24:30;;;;;;;28.13;15.40;;;8.00;99.90;;;;;;5098933;28;20167;-65
2020/12/16 04:26:55;;;;;;;27.33;14.32;;;8.10;99.90;;;;;;5098421;28;20193;-65
2020/12/16 04:29:21;;;;;;;26.15;15.32;;;8.10;99.90;;;;;;5098534;28;20182;-64
2020/12/16 04:31:50;;;;;;;26.17;15.45;;;8.10;99.90;;;;;;5098507;28;20187;-64
2020/12/16 04:34:16;;;;;;;26.02;15.10;;;8.10;99.90;;;;;;5098741;28;20164;-64
2020/12/16 04:36:48;;;;;;;23.67;13.77;;;8.10;99.90;;;;;;5098173;28;20168;-65
2020/12/16 04:39:15;;;;;;;24.80;14.35;;;8.20;99.90;;;;;;5098412;28;20564;-65
2020/12/16 04:41:41;;;;;;;27.85;14.40;;;8.20;99.90;;;;;;5097197;28;20186;-64
2020/12/16 04:44:07;;;;;;;25.40;14.48;;;8.20;99.90;;;;;;5098290;28;20195;-64
2020/12/16 04:46:37;;;;;;;26.58;14.57;;;8.20;99.90;;;;;;5096960;28;20184;-65
2020/12/16 04:49:03;;;;;;;27.20;14.80;;;8.20;99.90;;;;;;5097014;28;20184;-65
2020/12/16 04:51:33;;;;;;;29.50;15.65;;;8.20;99.90;;;;;;5097151;28;20486;-64
2020/12/16 04:54:00;;;;;;;27.40;15.07;;;8.20;99.90;;;;;;5097598;28;20168;-64
2020/12/16 04:56:26;;;;;;;26.10;14.95;;;8.20;99.90;;;;;;5097659;28;20171;-64
2020/12/16 04:58:51;;;;;;;27.25;15.35;;;8.20;99.90;;;;;;5097533;28;20172;-65
2020/12/16 05:01:17;;;;;;;27.83;15.13;;;8.20;99.90;;;;;;5097812;28;20205;-65
2020/12/16 05:03:42;;;;;;;26.33;14.55;;;8.10;99.90;;;;;;5097242;28;20198;-65
2020/12/16 05:06:08;;;;;;;26.40;14.93;;;8.20;99.90;;;;;;5097435;28;20582;-65
2020/12/16 05:08:33;;;;;;;25.27;15.15;;;8.20;99.90;;;;;;5097515;28;20191;-65
2020/12/16 05:10:59;;;;;;;27.98;15.70;;;8.10;99.90;;;;;;5097903;28;20178;-64
2020/12/16 05:13:26;;;;;;;30.00;16.33;;;8.10;99.90;;;;;;5097546;28;20168;-64
2020/12/16 05:15:51;;;;;;;28.20;15.15;;;8.10;99.90;;;;;;5097835;28;20171;-65
2020/12/16 05:18:21;;;;;;;30.20;15.27;;;8.00;99.90;;;;;;5097141;28;20190;-64
2020/12/16 05:20:50;;;;;;;28.55;15.73;;;7.90;99.90;;;;;;5097446;28;20198;-64
2020/12/16 05:23:17;;;;;;;27.30;14.90;;;7.90;99.90;;;;;;5097170;28;20195;-64
2020/12/16 05:26:02;;;;;;;29.38;15.57;;;7.90;99.90;;;;;;5097194;28;20232;-64
2020/12/16 05:28:33;;;;;;;32.92;15.90;;;8.00;99.90;;;;;;5089377;28;20646;-64
2020/12/16 05:31:02;;;;;;;26.92;15.40;;;8.00;99.90;;;;;;5097178;28;20170;-64
2020/12/16 05:33:28;;;;;;;29.10;15.75;;;8.00;99.90;;;;;;5097069;28;20167;-65
2020/12/16 05:35:54;;;;;;;25.65;15.05;;;8.10;99.90;;;;;;5097102;28;20152;-65
2020/12/16 05:38:20;;;;;;;30.08;15.85;;;8.10;99.90;;;;;;5097168;28;20225;-65
2020/12/16 05:40:46;;;;;;;28.25;15.43;;;8.10;99.90;;;;;;5097210;28;20192;-64
2020/12/16 05:43:27;;;;;;;31.48;16.27;;;8.10;99.90;;;;;;5096716;28;20257;-65
2020/12/16 05:45:52;;;;;;;28.02;15.77;;;8.20;99.90;;;;;;5096831;28;20179;-64
2020/12/16 05:48:18;;;;;;;30.83;16.20;;;8.20;99.90;;;;;;5096530;28;20645;-65
2020/12/16 05:50:51;;;;;;;27.75;15.27;;;8.20;99.90;;;;;;5096641;28;20208;-65
2020/12/16 05:53:19;;;;;;;27.58;14.38;;;8.20;99.90;;;;;;5096711;28;20183;-64
2020/12/16 05:55:52;;;;;;;26.50;15.50;;;8.20;99.90;;;;;;5096944;28;20168;-65
2020/12/16 05:58:19;;;;;;;30.90;15.23;;;8.20;99.90;;;;;;5096698;28;20209;-65
2020/12/16 06:00:47;;;;;;;29.52;15.07;;;8.20;99.90;;;;;;5096803;28;20276;-65
2020/12/16 06:03:18;;;;;;;26.23;14.90;;;8.20;99.90;;;;;;5096382;28;20604;-64
2020/12/16 06:05:49;;;;;;;24.83;15.20;;;8.20;99.90;;;;;;5096449;28;20591;-65
2020/12/16 06:08:14;;;;;;;26.30;14.85;;;8.20;99.90;;;;;;5096529;28;20214;-64
2020/12/16 06:10:43;;;;;;;25.80;14.80;;;8.20;99.90;;;;;;5096370;28;20588;-64
2020/12/16 06:13:12;;;;;;;28.60;14.45;;;8.20;99.90;;;;;;5096482;28;20224;-65
2020/12/16 06:15:56;;;;;;;26.02;14.38;;;8.20;99.90;;;;;;5096586;28;20537;-65
2020/12/16 06:18:24;;;;;;;25.00;14.43;;;8.20;99.90;;;;;;5096440;28;20523;-65
2020/12/16 06:20:51;;;;;;;24.88;14.43;;;8.20;99.90;;;;;;5096758;28;20171;-64
2020/12/16 06:23:21;;;;;;;28.83;14.57;;;8.20;99.90;;;;;;5096307;28;20171;-64
2020/12/16 06:25:50;;;;;;;26.38;13.57;;;8.20;99.90;;;;;;5096381;28;20209;-64
2020/12/16 06:28:16;;;;;;;28.65;14.55;;;8.20;99.90;;;;;;5095876;28;20179;-64
2020/12/16 06:30:53;;;;;;;27.67;14.73;;;8.20;99.90;;;;;;5096112;28;20163;-64
2020/12/16 06:33:50;;;;;;;25.80;13.48;;;8.20;99.90;;;;;;5096558;28;20206;-65
2020/12/16 06:36:18;;;;;;;25.83;13.57;;;8.20;99.90;;;;;;5096189;28;20178;-64
2020/12/16 06:38:48;;;;;;;27.65;14.07;;;8.20;99.90;;;;;;5095314;28;20214;-64
2020/12/16 06:41:31;;;;;;;25.90;14.45;;;8.20;99.90;;;;;;5095902;28;20239;-63
2020/12/16 06:44:07;;;;;;;23.92;13.93;;;8.20;99.90;;;;;;5095991;28;20160;-63
2020/12/16 06:46:33;;;;;;;23.17;13.45;;;8.20;99.90;;;;;;5096202;28;20175;-64
2020/12/16 06:49:09;;;;;;;25.88;14.13;;;8.10;99.90;;;;;;5097575;28;20214;-64
2020/12/16 06:51:48;;;;;;;24.95;13.95;;;8.20;99.90;;;;;;5097966;28;20144;-64
2020/12/16 06:54:18;;;;;;;25.00;13.98;;;8.20;99.90;;;;;;5099280;28;20154;-64
2020/12/16 06:56:46;;;;;;;27.08;14.50;;;8.20;99.90;;;;;;5100101;28;20160;-64
2020/12/16 06:59:19;;;;;;;24.90;13.93;;;8.20;99.90;;;;;;5101345;28;20171;-64
2020/12/16 07:02:11;;;;;;;26.10;14.65;;;8.20;99.90;;;;;;5103839;28;20184;-64
2020/12/16 07:04:36;;;;;;;23.48;14.48;;;8.20;99.90;;;;;;5102529;28;20199;-66
2020/12/16 07:07:02;;;;;;;24.90;13.27;;;8.20;99.90;;;;;;5095176;28;20308;-64
2020/12/16 07:09:33;;;;;;;23.58;14.18;;;8.20;99.90;;;;;;5095226;28;20600;-64
2020/12/16 07:11:58;;;;;;;22.45;13.68;;;8.20;99.90;;;;;;5095562;28;20577;-64
2020/12/16 07:14:27;;;;;;;25.48;13.73;;;8.10;99.90;;;;;;5095145;28;20235;-64
2020/12/16 07:17:07;;;;;;;26.58;13.98;;;8.10;99.90;;;;;;5095416;28;20163;-64
2020/12/16 07:19:33;;;;;;;21.95;13.30;;;8.10;99.90;;;;;;5095044;28;20155;-64
2020/12/16 07:22:16;;;;;;;27.48;14.18;;;8.10;99.90;;;;;;5095386;28;20178;-64
2020/12/16 07:24:47;;;;;;;26.48;13.65;;;8.10;99.90;;;;;;5094354;28;20167;-64
2020/12/16 07:27:20;;;;;;;23.77;13.73;;;8.10;99.90;;;;;;5095260;28;20259;-64
2020/12/16 07:29:55;;;;;;;24.75;13.50;;;8.10;99.90;;;;;;5095048;28;20235;-64
2020/12/16 07:32:22;;;;;;;24.85;13.55;;;8.10;99.90;;;;;;5094951;28;20226;-64
2020/12/16 07:34:59;;;;;;;23.20;13.05;;;8.10;99.90;;;;;;5095144;28;20160;-64
2020/12/16 07:37:30;;;;;;;22.67;13.38;;;8.10;99.90;;;;;;5095081;28;20179;-64
2020/12/16 07:40:10;;;;;;;23.17;13.77;;;8.10;99.90;;;;;;5095061;28;20248;-64
2020/12/16 07:42:36;;;;;;;26.25;14.13;;;8.10;99.90;;;;;;5095023;28;20155;-64
2020/12/16 07:45:04;;;;;;;26.48;13.77;;;8.10;99.90;;;;;;5094781;28;20233;-64
2020/12/16 07:47:30;;;;;;;24.33;13.95;;;8.10;99.90;;;;;;5095088;28;20266;-64
2020/12/16 07:49:55;;;;;;;23.67;13.35;;;8.10;99.90;;;;;;5094871;28;20525;-64
2020/12/16 07:52:24;;;;;;;21.65;13.40;;;8.10;99.90;;;;;;5099063;28;20174;-64
2020/12/16 07:54:50;;;;;;;22.80;13.00;;;8.10;99.90;;;;;;5099034;28;20164;-64
2020/12/16 07:57:16;;;;;;;22.45;13.15;;;8.10;99.90;;;;;;5099529;28;20157;-64
2020/12/16 07:59:41;;;;;;;21.85;13.48;;;8.10;99.90;;;;;;5099095;28;20171;-64
2020/12/16 08:02:12;;;;;;;23.20;13.60;;;8.10;99.90;;;;;;5098896;28;20606;-64
2020/12/16 08:04:39;;;;;;;25.38;14.02;;;8.10;99.90;;;;;;5099041;28;20151;-64
2020/12/16 08:07:16;;;;;;;22.33;13.02;;;8.10;99.90;;;;;;5099484;28;20174;-64
2020/12/16 08:10:01;;;;;;;20.80;13.15;;;8.10;99.90;;;;;;5098864;28;20240;-64
2020/12/16 08:12:28;;;;;;;20.58;12.15;;;8.10;99.90;;;;;;5099723;28;20164;-64
2020/12/16 08:15:14;;;;;;;22.40;12.23;;;8.10;99.90;;;;;;5098873;28;20175;-64
2020/12/16 08:17:41;;;;;;;22.50;12.63;;;8.20;99.90;;;;;;5098868;28;20556;-63
2020/12/16 08:20:32;;;;;;;21.20;11.88;;;8.20;99.90;;;;;;5098635;28;20551;-64
2020/12/16 08:23:00;;;;;;;20.55;13.02;;;8.20;99.90;;;;;;5098859;28;20174;-64
2020/12/16 08:25:26;;;;;;;22.15;12.73;;;8.30;99.90;;;;;;5098617;28;20171;-64
2020/12/16 08:27:56;;;;;;;21.00;12.75;;;8.30;99.90;;;;;;5098339;28;20180;-64
2020/12/16 08:30:23;;;;;;;22.98;13.07;;;8.40;99.90;;;;;;5098193;28;20209;-64
2020/12/16 08:33:06;;;;;;;22.15;12.63;;;8.40;99.90;;;;;;5080458;28;20164;-64
2020/12/16 08:35:51;;;;;;;20.63;12.77;;;8.50;99.90;;;;;;5098211;28;20148;-64
2020/12/16 08:38:31;;;;;;;22.90;12.95;;;8.50;99.90;;;;;;5097329;28;20151;-64
2020/12/16 08:40:58;;;;;;;23.80;12.75;;;8.60;99.90;;;;;;5098149;28;20193;-64
2020/12/16 08:43:38;;;;;;;23.00;12.88;;;8.60;99.90;;;;;;5098138;28;20246;-64
2020/12/16 08:46:07;;;;;;;21.55;13.85;;;8.60;99.90;;;;;;5098004;28;20195;-64
2020/12/16 08:48:44;;;;;;;22.27;13.40;;;8.60;99.90;;;;;;5097797;28;20187;-64
2020/12/16 08:51:11;;;;;;;19.98;11.93;;;8.70;99.90;;;;;;5098245;28;20465;-64
2020/12/16 08:53:51;;;;;;;21.92;12.18;;;8.70;99.90;;;;;;5097969;28;20649;-64
2020/12/16 08:56:40;;;;;;;21.48;12.57;;;8.70;99.90;;;;;;5098101;28;20596;-64
2020/12/16 08:59:11;;;;;;;20.15;12.18;;;8.80;99.90;;;;;;5097738;28;20156;-64
2020/12/16 09:01:45;;;;;;;20.15;12.88;;;8.80;99.90;;;;;;5097542;28;20584;-64
2020/12/16 09:04:11;;;;;;;23.55;13.55;;;8.80;99.90;;;;;;5097974;28;20148;-64
2020/12/16 09:06:37;;;;;;;20.67;12.90;;;8.90;99.90;;;;;;5096648;28;20175;-64
2020/12/16 09:09:15;;;;;;;20.65;13.18;;;8.90;99.90;;;;;;5097564;28;20183;-64
2020/12/16 09:11:47;;;;;;;20.58;12.18;;;9.00;99.90;;;;;;5097513;28;20163;-64
2020/12/16 09:14:14;;;;;;;21.55;11.90;;;9.10;99.90;;;;;;5097855;28;20140;-64
2020/12/16 09:16:39;;;;;;;20.98;12.02;;;9.10;99.90;;;;;;5097445;28;20164;-64
2020/12/16 09:19:05;;;;;;;19.25;12.32;;;9.20;99.90;;;;;;5097035;28;20193;-64
2020/12/16 09:21:33;;;;;;;19.80;12.15;;;9.30;99.90;;;;;;5097350;28;20291;-64
2020/12/16 09:24:01;;;;;;;19.40;12.23;;;9.30;99.90;;;;;;5097700;28;20190;-64
2020/12/16 09:26:55;;;;;;;19.35;12.20;;;9.30;99.90;;;;;;5096318;28;20659;-63
2020/12/16 09:29:29;;;;;;;20.58;12.45;;;9.30;99.90;;;;;;5095734;28;20207;-63
2020/12/16 09:32:11;;;;;;;19.45;11.45;;;9.30;99.90;;;;;;5097279;28;20550;-65
2020/12/16 09:34:44;;;;;;;19.30;11.88;;;9.30;99.90;;;;;;5097059;28;20463;-65
2020/12/16 09:37:45;;;;;;;19.48;11.32;;;9.30;99.90;;;;;;5097094;28;20148;-65
2020/12/16 09:40:15;;;;;;;18.88;11.48;;;9.30;99.90;;;;;;5054992;28;20180;-65
2020/12/16 09:42:53;;;;;;;22.80;12.65;;;9.30;99.90;;;;;;5055565;28;20188;-65
2020/12/16 09:45:20;;;;;;;18.50;12.02;;;9.30;99.90;;;;;;5054819;28;20187;-65
2020/12/16 09:47:47;;;;;;;23.40;12.65;;;9.30;99.90;;;;;;5055032;28;20208;-65
2020/12/16 09:50:13;;;;;;;22.25;12.63;;;9.30;99.90;;;;;;5054851;28;20161;-64
2020/12/16 09:52:39;;;;;;;19.08;11.85;;;9.30;99.90;;;;;;5038005;28;20161;-65
2020/12/16 09:55:20;;;;;;;22.85;12.32;;;9.30;99.90;;;;;;5054968;28;20176;-64
2020/12/16 09:58:02;;;;;;;20.17;12.27;;;9.30;99.90;;;;;;5055103;28;20161;-64
2020/12/16 10:00:28;;;;;;;22.50;13.02;;;9.30;99.90;;;;;;5054700;28;20183;-64
2020/12/16 10:02:57;;;;;;;23.38;12.93;;;9.20;99.90;;;;;;5054896;28;20187;-64
2020/12/16 10:05:23;;;;;;;24.23;13.10;;;9.20;99.90;;;;;;5054601;28;20175;-64
2020/12/16 10:07:48;;;;;;;22.80;13.23;;;9.20;99.90;;;;;;5054385;28;20196;-64
2020/12/16 10:10:14;;;;;;;21.70;12.95;;;9.20;99.90;;;;;;5054581;28;20458;-64
2020/12/16 10:12:39;;;;;;;22.33;13.60;;;9.10;99.90;;;;;;5054484;28;20180;-65
2020/12/16 10:15:05;;;;;;;21.00;13.10;;;9.10;99.90;;;;;;5091272;28;20176;-65
2020/12/16 10:17:30;;;;;;;21.02;12.30;;;9.00;99.90;;;;;;5096190;28;20176;-64
2020/12/16 10:19:56;;;;;;;23.25;13.32;;;9.00;99.90;;;;;;5096182;28;20176;-64
2020/12/16 10:22:21;;;;;;;22.27;13.63;;;9.00;99.90;;;;;;5096043;28;20175;-65
2020/12/16 10:24:47;;;;;;;21.52;12.27;;;8.90;99.90;;;;;;5096289;28;20172;-65
2020/12/16 10:27:13;;;;;;;23.10;12.63;;;8.90;99.90;;;;;;5095970;28;20164;-64
2020/12/16 10:29:39;;;;;;;21.33;12.00;;;8.90;99.90;;;;;;5096062;28;20506;-65
2020/12/16 10:32:04;;;;;;;18.95;11.77;;;8.90;99.90;;;;;;5095938;28;20159;-65
2020/12/16 10:34:30;;;;;;;21.55;12.32;;;8.90;99.90;;;;;;5095832;28;20171;-64
2020/12/16 10:36:56;;;;;;;22.23;12.57;;;8.90;99.90;;;;;;5095924;28;20170;-65
2020/12/16 10:39:22;;;;;;;21.95;12.60;;;8.90;99.90;;;;;;5095942;28;20603;-65
2020/12/16 10:41:55;;;;;;;19.17;12.30;;;8.90;99.90;;;;;;5095770;28;20220;-65
2020/12/16 10:44:22;;;;;;;19.27;10.82;;;8.90;99.90;;;;;;5096032;28;20168;-65
2020/12/16 10:46:54;;;;;;;19.65;11.55;;;8.90;99.90;;;;;;5094805;28;20232;-64
2020/12/16 10:49:26;;;;;;;19.30;11.80;;;8.90;99.90;;;;;;5095689;28;20643;-64
2020/12/16 10:51:52;;;;;;;17.40;11.13;;;8.90;99.90;;;;;;5095797;28;20163;-64
2020/12/16 10:54:18;;;;;;;19.35;11.30;;;8.90;99.90;;;;;;5096226;28;20170;-65
2020/12/16 10:56:44;;;;;;;20.25;11.63;;;8.80;99.90;;;;;;5095500;28;20595;-65
2020/12/16 10:59:10;;;;;;;18.60;11.13;;;8.70;99.90;;;;;;5096072;28;20172;-65
2020/12/16 11:01:36;;;;;;;17.50;11.70;;;8.70;99.90;;;;;;5094545;28;20224;-64
2020/12/16 11:04:07;;;;;;;20.42;12.82;;;8.60;99.90;;;;;;5095767;28;20248;-65
2020/12/16 11:06:33;;;;;;;21.95;12.65;;;8.60;99.90;;;;;;5095650;28;20170;-65
2020/12/16 11:08:58;;;;;;;21.27;12.45;;;8.60;99.90;;;;;;5094824;28;20191;-65
2020/12/16 11:11:24;;;;;;;25.60;14.52;;;8.60;99.90;;;;;;5095594;28;20615;-65
2020/12/16 11:13:49;;;;;;;22.80;13.18;;;8.60;99.90;;;;;;5095467;28;20175;-65
2020/12/16 11:16:15;;;;;;;21.13;12.77;;;8.60;99.90;;;;;;5095443;28;20195;-65
2020/12/16 11:18:40;;;;;;;22.52;13.35;;;8.70;99.90;;;;;;5097449;28;20181;-65
2020/12/16 11:21:06;;;;;;;20.90;13.57;;;8.70;99.90;;;;;;5098420;28;20177;-65
2020/12/16 11:23:31;;;;;;;18.23;11.82;;;8.70;99.90;;;;;;5099664;28;20178;-65
2020/12/16 11:25:57;;;;;;;21.38;13.90;;;8.70;99.90;;;;;;5094992;28;20507;-64
2020/12/16 11:28:22;;;;;;;21.50;13.93;;;8.70;99.90;;;;;;5094926;28;20195;-65
2020/12/16 11:30:48;;;;;;;22.00;13.70;;;8.80;99.90;;;;;;5094956;28;20236;-65
2020/12/16 11:33:13;;;;;;;19.80;11.95;;;8.80;99.90;;;;;;5094830;28;20168;-65
2020/12/16 11:35:39;;;;;;;21.40;12.95;;;8.80;99.90;;;;;;5094954;28;20220;-65
2020/12/16 11:38:04;;;;;;;21.70;12.77;;;8.70;99.90;;;;;;5094777;28;20167;-65
2020/12/16 11:40:30;;;;;;;25.73;14.25;;;8.70;99.90;;;;;;5095053;28;20591;-64
2020/12/16 11:42:55;;;;;;;25.08;13.27;;;8.70;99.90;;;;;;5094643;28;20199;-65
2020/12/16 11:45:21;;;;;;;20.23;12.23;;;8.70;99.90;;;;;;5094692;28;20265;-65
2020/12/16 11:47:46;;;;;;;19.77;12.20;;;8.70;99.90;;;;;;5094712;28;20236;-65
2020/12/16 11:50:12;;;;;;;22.38;13.23;;;8.60;99.90;;;;;;5094987;28;20164;-64
2020/12/16 11:52:38;;;;;;;24.27;13.05;;;8.60;99.90;;;;;;5094837;28;20614;-65
2020/12/16 11:55:05;;;;;;;24.20;12.93;;;8.60;99.90;;;;;;5094813;28;20623;-65
2020/12/16 11:57:31;;;;;;;22.85;13.15;;;8.60;99.90;;;;;;5094678;28;20649;-65
2020/12/16 11:59:57;;;;;;;22.88;12.90;;;8.60;99.90;;;;;;5094837;28;20251;-65
2020/12/16 12:02:22;;;;;;;24.40;13.20;;;8.60;99.90;;;;;;5094668;28;20553;-65
2020/12/16 12:04:48;;;;;;;24.80;12.77;;;8.60;99.90;;;;;;5094756;28;20164;-65
2020/12/16 12:07:14;;;;;;;24.13;12.35;;;8.60;99.90;;;;;;5094567;28;20503;-65
2020/12/16 12:09:39;;;;;;;21.50;11.95;;;8.70;99.90;;;;;;5094583;28;20546;-65
2020/12/16 12:12:05;;;;;;;23.95;12.55;;;8.70;99.90;;;;;;5093625;28;20603;-64
2020/12/16 12:14:30;;;;;;;21.05;12.15;;;8.70;99.90;;;;;;5094484;28;20575;-64
2020/12/16 12:16:56;;;;;;;22.02;12.43;;;8.70;99.90;;;;;;5094601;28;20170;-64
2020/12/16 12:19:22;;;;;;;22.92;12.32;;;8.70;99.90;;;;;;5094557;28;20572;-63
2020/12/16 12:21:48;;;;;;;19.05;11.73;;;8.70;99.90;;;;;;5094554;28;20164;-65
2020/12/16 12:24:13;;;;;;;20.83;11.77;;;8.70;99.90;;;;;;5094281;28;20207;-65
2020/12/16 12:26:39;;;;;;;17.90;10.20;;;8.70;99.90;;;;;;5094306;28;20166;-65
2020/12/16 12:29:05;;;;;;;18.80;11.73;;;8.70;99.90;;;;;;5094173;28;20198;-65
2020/12/16 12:31:30;;;;;;;22.17;12.35;;;8.70;99.90;;;;;;5094252;28;20195;-65
2020/12/16 12:33:56;;;;;;;20.45;11.75;;;8.70;99.90;;;;;;5094207;28;20217;-65
2020/12/16 12:36:22;;;;;;;20.38;11.70;;;8.70;99.90;;;;;;5094660;28;20242;-65
2020/12/16 12:38:48;;;;;;;20.58;11.15;;;8.70;99.90;;;;;;5097144;28;20217;-65
2020/12/16 12:41:15;;;;;;;19.95;12.13;;;8.60;99.90;;;;;;5098941;28;20201;-65
2020/12/16 12:43:41;;;;;;;22.10;12.43;;;8.60;99.90;;;;;;5098269;28;20199;-65